Nearby METAR Reports

 

KSJC - San Jose, California, USA
Distance from station: NØ 14km
Oppdatert: 22/02/2020 16:53
Hovedsaklig skyet
Hovedsaklig skyet
 Vind fra SSØ
Vind: SSØ 11 km/h
Temperatur: 13°C
Duggpunkt: 5°C
Fuktighet: 59%
Barometer: 1015.9 hPa
Clouds: Hovedsaklig skyet
Visibility: 16 km
Cloud details: Few Clouds 1676 m
Delvis skyet 2743 m
Hovedsaklig skyet 4572 m
2020/02/22 15:53 KSJC 221553Z 15006KT 10SM FEW055 SCT090 BKN150 13/05 A3000 RMK AO2 SLP158 T01280050 $
KNUQ - Moffett Nas/Mtn, California, USA
Distance from station: N 14km
Oppdatert: 21/11/2019 17:56
NOT Current

 
Barometer: 1011.2 hPa
2019/11/21 16:56 KNUQ 211656Z AUTO A2986 RMK AO2 SLP116 PWINO $
 
KPAO - Palo Alto, California, USA
Distance from station: NNV 23km
Oppdatert: 22/02/2020 16:47
Hovedsaklig skyet
Hovedsaklig skyet
 Vind fra calm
Vind: Stille
Temperatur: 12°C
Duggpunkt: 8°C
Fuktighet: 77%
Barometer: 1015.9 hPa
Clouds: Hovedsaklig skyet
Visibility: 16 km
Cloud details: Delvis skyet 1524 m
Hovedsaklig skyet 3658 m
2020/02/22 15:47 KPAO 221547Z 00000KT 10SM SCT050 BKN120 12/08 A3000
KRHV - San Jose/Reid, California, USA
Distance from station: ØNØ 19km
Oppdatert: 22/02/2020 16:47
Hovedsaklig skyet
Hovedsaklig skyet
 Vind fra varies
Vind: varies 6 km/h
Temperatur: 12°C
Duggpunkt: 5°C
Fuktighet: 63%
Barometer: 1015.9 hPa
Clouds: Hovedsaklig skyet
Visibility: 16 km
Cloud details: Delvis skyet 1829 m
Hovedsaklig skyet 3048 m
2020/02/22 15:47 KRHV 221547Z VRB03KT 10SM SCT060 BKN100 12/05 A3000
 
KOAK - Oakland, California, USA
Distance from station: NNV 50km
Oppdatert: 22/02/2020 16:53
Delvis skyet
Delvis skyet
 Vind fra NV
Vind: NV 9 km/h
Temperatur: 13°C
Duggpunkt: 9°C
Fuktighet: 77%
Barometer: 1016.3 hPa
Clouds: Delvis skyet
Visibility: 14 km
Cloud details: Few Clouds 244 m
Delvis skyet 4267 m
Delvis skyet 6096 m
2020/02/22 15:53 KOAK 221553Z 31005KT 9SM FEW008 SCT140 SCT200 13/09 A3001 RMK AO2 SLP163 T01280094
KSQL - San Carlos Airpo, California, USA
Distance from station: NV 34km
Oppdatert: 22/02/2020 16:47
Hovedsaklig skyet
Hovedsaklig skyet
 Vind fra calm
Vind: Stille
Temperatur: 12°C
Duggpunkt: 9°C
Fuktighet: 82%
Barometer: 1016.3 hPa
Clouds: Hovedsaklig skyet
Visibility: 16 km
Cloud details: Delvis skyet 1524 m
Hovedsaklig skyet 3658 m
2020/02/22 15:47 KSQL 221547Z 00000KT 10SM SCT050 BKN120 12/09 A3001
 
KSFO - San Francisco, California, USA
Distance from station: NV 49km
Oppdatert: 22/02/2020 16:56
Delvis skyet
Delvis skyet
 Vind fra V
Vind: V 22 km/h
Temperatur: 12°C
Duggpunkt: 9°C
Fuktighet: 82%
Barometer: 1015.9 hPa
Clouds: Delvis skyet
Visibility: 16 km
Cloud details: Few Clouds 213 m
Delvis skyet 3658 m
Delvis skyet 4572 m
2020/02/22 15:56 KSFO 221556Z 28012KT 10SM FEW007 SCT120 SCT150 12/09 A3000 RMK AO2 SLP159 T01170089
KE16 - San Martin, California, USA
Distance from station: ØSØ 43km
Oppdatert: 14/11/2019 10:35
NOT Current
Overskyet
Overskyet
 Vind fra SØ
Vind: SØ 11 km/h
Temperatur: 12°C
Duggpunkt: 10°C
Fuktighet: 88%
Barometer: 1017.6 hPa
Clouds: Overskyet
Visibility: 16 km
Cloud details: Overskyet 427 m
2019/11/14 09:35 KE16 140935Z AUTO 13006KT 10SM OVC014 12/10 A3005 RMK AO2
 
KWVI - Watsonville, California, USA
Distance from station: SSØ 44km
Oppdatert: 22/02/2020 16:53
Overskyet
Overskyet
 Vind fra N
Vind: N 6 km/h
Temperatur: 13°C
Duggpunkt: 9°C
Fuktighet: 77%
Barometer: 1017.6 hPa
Clouds: Overskyet
Visibility: 16 km
Cloud details: Overskyet 457 m
2020/02/22 15:53 KWVI 221553Z AUTO 35003KT 10SM OVC015 13/09 A3005 RMK AO2 SLP174 T01330094
KHAF - Half Moon Bay, California, USA
Distance from station: VNV 50km
Oppdatert: 22/02/2020 16:55

 
2020/02/22 15:55 KHAF 221555Z AUTO RMK AO2 PWINO
 
KHWD - Hayward, California, USA
Distance from station: N 44km
Oppdatert: 22/02/2020 16:54
Few Clouds
Few Clouds
 Vind fra calm
Vind: Stille
Temperatur: 12°C
Duggpunkt: 6°C
Fuktighet: 67%
Barometer: 1015.9 hPa
Clouds: Few Clouds
Visibility: 16 km
Cloud details: Few Clouds 3658 m
2020/02/22 15:54 KHWD 221554Z 00000KT 10SM FEW120 12/06 A3000 RMK AO2 SLP168 T01220056
KLVK - Livermore, California, USA
Distance from station: NNØ 51km
Oppdatert: 22/02/2020 16:53
Overskyet
Overskyet
 Vind fra VSV
Vind: VSV 6 km/h
Temperatur: 12°C
Duggpunkt: 4°C
Fuktighet: 58%
Barometer: 1015.6 hPa
Clouds: Overskyet
Visibility: 16 km
Cloud details: Overskyet 3353 m
2020/02/22 15:53 KLVK 221553Z 24003KT 10SM OVC110 12/04 A2999 RMK AO2 SLP152 T01170039